Time;durP1;ratioP1;P1;durP2;ratioP2;P2;SDS_P1;SDS_P2;PMS_P1;PMS_P2;Temp;Humidity;BMP_temperature;BMP_pressure;BME280_temperature;BME280_humidity;BME280_pressure;Samples;Min_cycle;Max_cycle;Signal;HPM_P1;HPM_P2
2021/08/22 00:00:40;;;;;;;20.83;12.93;;;;;;;19.99;91.99;96296.94;4975314;28;20257;-72
2021/08/22 00:03:07;;;;;;;21.20;12.65;;;;;;;20.22;91.94;96296.91;4974788;28;20207;-71
2021/08/22 00:05:34;;;;;;;17.15;11.48;;;;;;;20.05;92.25;96292.50;4974495;28;20227;-72
2021/08/22 00:08:01;;;;;;;19.75;12.77;;;;;;;20.24;91.25;96295.63;4975241;28;20241;-72
2021/08/22 00:10:27;;;;;;;19.77;12.45;;;;;;;20.27;91.64;96289.00;4975488;28;20204;-72
2021/08/22 00:12:54;;;;;;;20.10;13.15;;;;;;;20.15;92.28;96288.22;4975064;28;20215;-71
2021/08/22 00:15:20;;;;;;;20.20;12.25;;;;;;;20.07;93.56;96290.41;4973948;28;20223;-72
2021/08/22 00:17:47;;;;;;;20.48;13.05;;;;;;;20.14;92.86;96299.13;4975483;28;20207;-72
2021/08/22 00:20:15;;;;;;;21.73;13.32;;;;;;;20.38;92.38;96307.72;4975022;28;20211;-71
2021/08/22 00:22:41;;;;;;;22.40;12.45;;;;;;;20.18;92.51;96311.81;4975175;28;20204;-71
2021/08/22 00:25:08;;;;;;;19.27;12.88;;;;;;;20.21;92.62;96316.69;4972615;28;20231;-71
2021/08/22 00:27:35;;;;;;;20.35;12.18;;;;;;;20.00;92.96;96319.16;4975865;28;20204;-71
2021/08/22 00:30:01;;;;;;;19.10;11.93;;;;;;;19.93;93.06;96316.59;4975746;28;20203;-71
2021/08/22 00:32:28;;;;;;;20.58;12.25;;;;;;;20.12;92.31;96326.13;4976211;28;20547;-71
2021/08/22 00:34:54;;;;;;;18.00;12.15;;;;;;;20.18;92.21;96321.72;4976045;28;20242;-71
2021/08/22 00:37:25;;;;;;;19.67;12.38;;;;;;;20.32;92.69;96322.03;4975418;28;20613;-71
2021/08/22 00:39:52;;;;;;;20.60;13.02;;;;;;;20.22;92.75;96326.34;4975673;28;20322;-71
2021/08/22 00:42:18;;;;;;;20.77;12.65;;;;;;;20.32;92.09;96327.38;4976140;28;20230;-72
2021/08/22 00:44:45;;;;;;;21.25;12.55;;;;;;;20.37;92.30;96330.19;4975766;28;20952;-72
2021/08/22 00:47:11;;;;;;;20.02;13.45;;;;;;;20.12;93.95;96336.81;4975330;28;20203;-71
2021/08/22 00:49:38;;;;;;;22.20;13.93;;;;;;;20.30;92.50;96347.41;4976401;28;20208;-71
2021/08/22 00:52:06;;;;;;;24.67;13.82;;;;;;;20.22;93.24;96350.44;4975645;28;20214;-71
2021/08/22 00:54:36;;;;;;;20.45;12.90;;;;;;;20.49;92.55;96356.94;4975715;28;21207;-72
2021/08/22 00:57:02;;;;;;;24.60;12.23;;;;;;;20.39;92.50;96354.03;4975307;28;20203;-72
2021/08/22 00:59:29;;;;;;;23.02;12.88;;;;;;;20.36;92.76;96362.53;4975977;28;20282;-71
2021/08/22 01:01:59;;;;;;;20.25;12.32;;;;;;;20.55;92.87;96358.69;4975110;28;20223;-72
2021/08/22 01:04:31;;;;;;;20.15;12.15;;;;;;;20.69;92.60;96360.06;4975627;28;20231;-71
2021/08/22 01:07:02;;;;;;;20.25;12.48;;;;;;;20.61;93.33;96366.59;4975290;28;20774;-71
2021/08/22 01:09:32;;;;;;;20.75;12.48;;;;;;;20.73;92.60;96363.91;4976071;28;20207;-71
2021/08/22 01:12:04;;;;;;;19.08;12.00;;;;;;;20.73;93.05;96361.25;4975121;28;20203;-71
2021/08/22 01:14:35;;;;;;;20.17;12.43;;;;;;;20.67;93.51;96349.59;4976151;28;20223;-71
2021/08/22 01:17:03;;;;;;;20.77;12.48;;;;;;;20.62;93.26;96345.97;4974610;28;20210;-72
2021/08/22 01:19:43;;;;;;;21.48;12.25;;;;;;;20.74;93.11;96344.13;4975788;28;20214;-71
2021/08/22 01:22:10;;;;;;;20.85;11.27;;;;;;;20.71;92.60;96344.53;4975414;28;20203;-71
2021/08/22 01:24:39;;;;;;;17.50;10.98;;;;;;;20.85;91.84;96338.72;4975702;28;20234;-71
2021/08/22 01:27:08;;;;;;;20.13;10.88;;;;;;;20.89;91.95;96337.19;4974561;28;20219;-71
2021/08/22 01:29:39;;;;;;;21.88;11.75;;;;;;;20.95;91.17;96331.69;4975907;28;20581;-72
2021/08/22 01:32:08;;;;;;;17.80;10.50;;;;;;;20.82;91.65;96336.50;4974823;28;20203;-72
2021/08/22 01:34:36;;;;;;;19.10;10.88;;;;;;;20.94;91.90;96340.78;4975141;28;20219;-72
2021/08/22 01:37:03;;;;;;;19.13;11.80;;;;;;;20.85;91.27;96346.78;4974312;28;20203;-72
2021/08/22 01:39:31;;;;;;;16.33;10.65;;;;;;;20.77;91.84;96341.75;4975730;28;20203;-72
2021/08/22 01:41:57;;;;;;;16.88;10.60;;;;;;;20.89;91.24;96338.00;4974355;28;20687;-72
2021/08/22 01:44:25;;;;;;;16.63;10.70;;;;;;;20.82;91.73;96341.88;4975079;28;20227;-72
2021/08/22 01:46:52;;;;;;;21.05;11.13;;;;;;;20.87;92.50;96337.44;4974535;28;20210;-71
2021/08/22 01:49:20;;;;;;;20.55;11.52;;;;;;;20.83;92.02;96342.69;4974889;28;20200;-72
2021/08/22 01:51:48;;;;;;;22.55;11.73;;;;;;;20.94;93.02;96340.78;4974623;28;20211;-72
2021/08/22 01:54:14;;;;;;;19.27;12.15;;;;;;;20.66;94.00;96347.94;4975059;28;20242;-72
2021/08/22 01:56:42;;;;;;;18.55;12.30;;;;;;;20.55;94.25;96375.53;4973866;28;20218;-71
2021/08/22 01:59:09;;;;;;;22.85;11.20;;;;;;;20.36;95.18;96378.59;4974983;28;20730;-71
2021/08/22 02:01:37;;;;;;;19.85;11.75;;;;;;;20.25;95.27;96379.41;4975108;28;20202;-71
2021/08/22 02:04:11;;;;;;;22.88;12.75;;;;;;;20.49;94.20;96384.53;4974416;28;20246;-71
2021/08/22 02:06:46;;;;;;;25.88;12.52;;;;;;;20.60;94.19;96396.28;4974374;28;20229;-71
2021/08/22 02:09:17;;;;;;;20.17;12.35;;;;;;;20.62;94.70;96400.34;4975279;28;20207;-72
2021/08/22 02:11:47;;;;;;;19.90;11.85;;;;;;;20.33;95.41;96408.53;4974253;28;20288;-71
2021/08/22 02:14:15;;;;;;;19.50;11.85;;;;;;;20.35;94.32;96423.31;4974025;28;20242;-71
2021/08/22 02:16:46;;;;;;;21.48;11.13;;;;;;;20.84;91.56;96412.09;4974068;28;20298;-72
2021/08/22 02:19:13;;;;;;;17.88;10.75;;;;;;;20.83;91.47;96413.94;4974597;28;20226;-72
2021/08/22 02:21:41;;;;;;;16.45;9.73;;;;;;;20.66;91.20;96422.09;4974344;28;20211;-72
2021/08/22 02:24:08;;;;;;;16.10;9.85;;;;;;;20.71;90.31;96427.56;4975113;28;20223;-72
2021/08/22 02:26:36;;;;;;;14.05;9.13;;;;;;;20.77;90.75;96432.84;4974910;28;20231;-71
2021/08/22 02:29:03;;;;;;;15.13;9.95;;;;;;;20.57;90.86;96440.41;4973708;28;20219;-71
2021/08/22 02:31:29;;;;;;;17.67;9.40;;;;;;;20.72;90.39;96442.59;4978639;28;20206;-71
2021/08/22 02:33:57;;;;;;;16.13;9.35;;;;;;;20.82;89.20;96442.84;4977924;28;20230;-71
2021/08/22 02:36:24;;;;;;;16.45;8.40;;;;;;;20.86;88.73;96442.97;4977028;28;20214;-71
2021/08/22 02:38:50;;;;;;;13.85;8.88;;;;;;;20.94;88.88;96447.97;4977838;28;20207;-72
2021/08/22 02:41:17;;;;;;;12.40;8.70;;;;;;;20.82;90.29;96429.47;4978516;28;20210;-72
2021/08/22 02:43:45;;;;;;;15.93;7.78;;;;;;;21.08;87.73;96433.25;4977459;28;20214;-72
2021/08/22 02:46:12;;;;;;;12.27;7.45;;;;;;;20.86;87.66;96424.22;4977097;28;20733;-71
2021/08/22 02:48:39;;;;;;;11.73;7.75;;;;;;;20.96;87.66;96423.59;4977698;28;20208;-71
2021/08/22 02:51:05;;;;;;;11.50;7.88;;;;;;;20.97;88.31;96423.38;4977771;28;20207;-71
2021/08/22 02:53:32;;;;;;;17.30;7.78;;;;;;;20.99;89.95;96420.44;4976937;28;20204;-72
2021/08/22 02:55:58;;;;;;;13.20;8.32;;;;;;;21.00;90.40;96414.88;4977310;28;20214;-72
2021/08/22 02:58:25;;;;;;;14.75;7.80;;;;;;;20.83;92.11;96416.63;4977702;28;20211;-71
2021/08/22 03:00:53;;;;;;;16.23;9.13;;;;;;;21.02;91.98;96402.03;4977729;28;20211;-72
2021/08/22 03:03:19;;;;;;;13.85;8.20;;;;;;;20.83;92.75;96413.94;4977583;28;20293;-71
2021/08/22 03:05:46;;;;;;;17.65;9.15;;;;;;;20.77;92.75;96424.78;4976558;28;21092;-72
2021/08/22 03:08:12;;;;;;;21.00;8.68;;;;;;;20.71;94.80;96412.34;4977283;28;20207;-71
2021/08/22 03:10:39;;;;;;;18.20;9.23;;;;;;;20.66;95.34;96406.03;4977693;28;20576;-72
2021/08/22 03:13:06;;;;;;;17.40;8.27;;;;;;;20.79;93.83;96408.50;4976786;28;20204;-72
2021/08/22 03:15:32;;;;;;;16.77;8.95;;;;;;;20.64;95.75;96405.47;4976599;28;20246;-72
2021/08/22 03:18:00;;;;;;;17.45;9.25;;;;;;;20.70;96.63;96399.19;4977332;28;20204;-72
2021/08/22 03:20:27;;;;;;;19.13;10.30;;;;;;;20.57;97.30;96400.25;4977013;28;20208;-71
2021/08/22 03:22:53;;;;;;;13.68;9.43;;;;;;;20.57;97.51;96392.22;4977328;28;20549;-71
2021/08/22 03:25:20;;;;;;;14.63;9.07;;;;;;;20.58;97.63;96398.38;4976249;28;20231;-72
2021/08/22 03:27:46;;;;;;;16.27;8.70;;;;;;;20.58;97.26;96398.38;4977162;28;20856;-72
2021/08/22 03:30:13;;;;;;;14.35;8.55;;;;;;;20.57;96.98;96402.09;4976935;28;20216;-72
2021/08/22 03:32:40;;;;;;;18.10;8.90;;;;;;;20.51;97.59;96395.00;4976635;28;20203;-71
2021/08/22 03:35:08;;;;;;;15.57;8.38;;;;;;;20.47;97.73;96391.97;4977335;28;20594;-72
2021/08/22 03:37:35;;;;;;;15.63;7.90;;;;;;;20.22;99.12;96387.91;4976128;28;20214;-71
2021/08/22 03:40:01;;;;;;;13.52;7.93;;;;;;;20.27;99.14;96382.66;4976692;28;20203;-71
2021/08/22 03:42:28;;;;;;;12.75;7.90;;;;;;;20.17;99.83;96376.28;4977466;28;20203;-72
2021/08/22 03:44:54;;;;;;;12.73;7.55;;;;;;;20.42;98.12;96380.34;4976451;28;20464;-71
2021/08/22 03:47:21;;;;;;;11.27;6.90;;;;;;;20.34;98.48;96375.31;4976210;28;20211;-71
2021/08/22 03:49:47;;;;;;;14.32;7.63;;;;;;;20.39;98.32;96386.16;4976571;28;20682;-71
2021/08/22 03:52:15;;;;;;;10.85;7.28;;;;;;;20.50;98.12;96386.16;4977130;28;20215;-71
2021/08/22 03:54:41;;;;;;;10.98;7.63;;;;;;;20.44;97.45;96381.75;4976481;28;20235;-71
2021/08/22 03:57:08;;;;;;;10.82;7.53;;;;;;;20.34;97.63;96396.75;4975490;28;20859;-71
2021/08/22 03:59:34;;;;;;;13.82;7.70;;;;;;;20.18;98.76;96392.91;4976937;28;20207;-71
2021/08/22 04:02:01;;;;;;;14.35;8.45;;;;;;;20.18;99.46;96391.28;4976526;28;20204;-71
2021/08/22 04:04:27;;;;;;;11.50;7.25;;;;;;;20.22;99.88;96387.91;4976553;28;20234;-71
2021/08/22 04:06:54;;;;;;;11.02;7.65;;;;;;;20.34;98.39;96375.31;4976158;28;20227;-71
2021/08/22 04:09:24;;;;;;;14.48;7.93;;;;;;;20.33;98.88;96379.88;4976405;28;20203;-71
2021/08/22 04:11:55;;;;;;;12.30;7.70;;;;;;;20.44;98.75;96391.63;4976095;28;20199;-71
2021/08/22 04:14:22;;;;;;;12.45;8.40;;;;;;;20.20;98.88;96406.88;4976408;28;20223;-72
2021/08/22 04:16:49;;;;;;;11.75;7.25;;;;;;;20.28;98.36;96419.09;4976137;28;20199;-72
2021/08/22 04:19:16;;;;;;;12.48;7.60;;;;;;;20.15;98.58;96424.69;4976202;28;20206;-71
2021/08/22 04:21:42;;;;;;;17.48;9.10;;;;;;;20.24;98.09;96431.31;4976112;28;20587;-71
2021/08/22 04:24:10;;;;;;;12.27;8.38;;;;;;;20.31;98.51;96437.38;4976637;28;20223;-71
2021/08/22 04:26:39;;;;;;;14.88;8.60;;;;;;;20.47;98.41;96450.06;4975499;28;21199;-71
2021/08/22 04:29:06;;;;;;;14.73;8.55;;;;;;;20.33;98.41;96454.03;4976544;28;20207;-71
2021/08/22 04:31:32;;;;;;;16.23;9.27;;;;;;;20.44;97.71;96445.16;4975828;28;21077;-71
2021/08/22 04:33:59;;;;;;;18.00;10.77;;;;;;;20.37;98.12;96441.81;4976464;28;20227;-71
2021/08/22 04:36:25;;;;;;;15.90;10.38;;;;;;;20.27;98.95;96447.72;4975137;28;20209;-71
2021/08/22 04:38:51;;;;;;;17.05;11.30;;;;;;;20.45;98.21;96436.09;4975946;28;20565;-72
2021/08/22 04:41:18;;;;;;;19.65;12.60;;;;;;;20.64;97.63;96430.38;4976314;28;20207;-71
2021/08/22 04:43:47;;;;;;;19.58;11.80;;;;;;;20.60;98.50;96437.25;4975667;28;20569;-71
2021/08/22 04:46:14;;;;;;;19.23;12.13;;;;;;;20.42;98.49;96436.56;4974568;28;20280;-71
2021/08/22 04:48:40;;;;;;;19.00;12.45;;;;;;;20.49;97.84;96431.91;4975719;28;20211;-71
2021/08/22 04:51:07;;;;;;;21.55;12.50;;;;;;;20.52;97.50;96440.28;4976035;28;20204;-71
2021/08/22 04:53:34;;;;;;;17.20;11.45;;;;;;;20.60;97.71;96426.53;4972920;28;20672;-71
2021/08/22 04:56:00;;;;;;;20.88;13.07;;;;;;;20.46;97.54;96432.38;4974099;28;20214;-71
2021/08/22 04:58:27;;;;;;;24.60;12.32;;;;;;;20.59;97.37;96416.06;4975234;28;20210;-71
2021/08/22 05:00:55;;;;;;;17.98;11.15;;;;;;;20.75;96.85;96421.56;4975030;28;20207;-71
2021/08/22 05:03:22;;;;;;;20.65;10.50;;;;;;;20.61;96.46;96424.66;4974663;28;20209;-71
2021/08/22 05:05:48;;;;;;;19.45;10.10;;;;;;;20.67;96.27;96429.94;4974449;28;21226;-71
2021/08/22 05:08:15;;;;;;;14.20;9.70;;;;;;;20.65;96.40;96437.38;4975046;28;20211;-71
2021/08/22 05:10:41;;;;;;;16.55;9.65;;;;;;;20.64;96.31;96434.94;4975273;28;20312;-71
2021/08/22 05:13:08;;;;;;;17.80;9.68;;;;;;;20.65;95.74;96428.53;4975305;28;20215;-71
2021/08/22 05:15:34;;;;;;;15.98;9.63;;;;;;;20.69;96.24;96443.06;4974911;28;20227;-71
2021/08/22 05:18:02;;;;;;;16.52;9.80;;;;;;;20.87;96.97;96435.72;4974758;28;20210;-71
2021/08/22 05:20:28;;;;;;;16.75;9.48;;;;;;;20.80;96.11;96435.06;4974114;28;20599;-71
2021/08/22 05:22:55;;;;;;;14.13;9.45;;;;;;;20.77;97.07;96440.88;4975234;28;20203;-71
2021/08/22 05:25:22;;;;;;;15.90;9.43;;;;;;;20.96;96.02;96445.88;4973947;28;20769;-71
2021/08/22 05:27:48;;;;;;;15.80;9.55;;;;;;;20.89;96.39;96447.84;4974749;28;20217;-71
2021/08/22 05:30:15;;;;;;;17.17;9.27;;;;;;;20.92;96.69;96439.31;4972069;28;20207;-71
2021/08/22 05:32:41;;;;;;;15.40;9.02;;;;;;;20.89;96.01;96450.53;4975229;28;21273;-71
2021/08/22 05:35:10;;;;;;;14.98;9.23;;;;;;;21.09;95.34;96448.28;4974916;28;20234;-71
2021/08/22 05:37:37;;;;;;;14.25;9.18;;;;;;;21.12;95.17;96452.38;4975096;28;20210;-71
2021/08/22 05:40:04;;;;;;;18.48;9.80;;;;;;;21.19;95.72;96450.34;4975324;28;20300;-71
2021/08/22 05:42:30;;;;;;;14.30;8.75;;;;;;;21.12;96.27;96438.97;4975088;28;20726;-71
2021/08/22 05:44:57;;;;;;;13.02;8.40;;;;;;;21.16;96.09;96440.09;4974720;28;20711;-71
2021/08/22 05:47:23;;;;;;;12.50;8.73;;;;;;;21.12;95.69;96445.13;4974395;28;20230;-71
2021/08/22 05:49:50;;;;;;;12.35;8.57;;;;;;;21.21;95.70;96448.25;4975059;28;20210;-71
2021/08/22 05:52:18;;;;;;;14.55;8.85;;;;;;;21.41;95.48;96438.75;4974736;28;20203;-71
2021/08/22 05:54:45;;;;;;;16.95;8.50;;;;;;;21.31;95.38;96437.72;4974680;28;20262;-71
2021/08/22 05:57:11;;;;;;;14.43;8.63;;;;;;;21.12;95.31;96450.47;4975041;28;20208;-71
2021/08/22 05:59:38;;;;;;;14.60;8.18;;;;;;;21.29;94.40;96446.00;4974280;28;20222;-71
2021/08/22 06:02:05;;;;;;;14.63;9.35;;;;;;;21.42;94.08;96439.56;4976399;28;20217;-71
2021/08/22 06:04:32;;;;;;;17.08;8.60;;;;;;;21.41;94.51;96448.66;4978204;28;20718;-71
2021/08/22 06:06:58;;;;;;;15.43;9.30;;;;;;;21.44;94.57;96446.31;4976879;28;20228;-71
2021/08/22 06:09:29;;;;;;;17.80;9.35;;;;;;;21.84;93.58;96439.03;4978687;28;20214;-71
2021/08/22 06:11:56;;;;;;;14.68;9.15;;;;;;;21.56;93.82;96447.94;4978507;28;20206;-71
2021/08/22 06:14:22;;;;;;;15.57;7.90;;;;;;;21.52;93.03;96443.28;4978250;28;20293;-71
2021/08/22 06:16:49;;;;;;;12.30;7.97;;;;;;;21.77;93.21;96433.81;4977134;28;20203;-71
2021/08/22 06:19:15;;;;;;;13.73;8.73;;;;;;;21.80;93.02;96437.91;4978367;28;20211;-71
2021/08/22 06:21:41;;;;;;;13.95;8.30;;;;;;;21.80;91.14;96440.56;4978214;28;20811;-71
2021/08/22 06:24:08;;;;;;;11.73;7.90;;;;;;;21.53;92.40;96444.91;4977976;28;20232;-71
2021/08/22 06:26:36;;;;;;;16.00;8.70;;;;;;;21.81;92.70;96445.69;4977196;28;20227;-70
2021/08/22 06:29:02;;;;;;;12.20;8.05;;;;;;;21.73;92.64;96442.63;4975205;28;20203;-70
2021/08/22 06:31:29;;;;;;;11.93;8.05;;;;;;;21.66;92.50;96439.25;4977835;28;20206;-70
2021/08/22 06:33:55;;;;;;;16.05;8.65;;;;;;;21.64;92.64;96438.69;4978314;28;20238;-70
2021/08/22 06:36:22;;;;;;;15.68;8.00;;;;;;;21.65;92.63;96429.56;4977255;28;20276;-70
2021/08/22 06:38:48;;;;;;;15.73;7.88;;;;;;;21.46;93.68;96433.50;4978118;28;20203;-70
2021/08/22 06:41:15;;;;;;;16.67;8.25;;;;;;;21.33;94.75;96430.25;4977924;28;20227;-69
2021/08/22 06:43:43;;;;;;;14.88;8.57;;;;;;;21.53;94.48;96421.56;4978436;28;20214;-70
2021/08/22 06:46:09;;;;;;;14.57;9.05;;;;;;;21.60;93.54;96426.78;4976993;28;20612;-70
2021/08/22 06:48:36;;;;;;;12.75;8.48;;;;;;;21.67;93.31;96417.53;4977690;28;20207;-70
2021/08/22 06:51:02;;;;;;;14.63;8.80;;;;;;;21.99;92.17;96425.91;4977612;28;20203;-70
2021/08/22 06:53:29;;;;;;;13.60;8.30;;;;;;;22.22;91.62;96426.53;4977829;28;20205;-70
2021/08/22 06:55:55;;;;;;;14.13;8.60;;;;;;;22.07;90.53;96423.59;4975308;28;20209;-72
2021/08/22 06:58:23;;;;;;;14.25;7.97;;;;;;;21.87;91.47;96422.44;4976177;28;20203;-70
2021/08/22 07:00:51;;;;;;;14.60;8.23;;;;;;;22.38;91.05;96412.34;4975822;28;20211;-70
2021/08/22 07:03:17;;;;;;;14.02;8.10;;;;;;;22.19;90.96;96419.78;4973024;28;20199;-70
2021/08/22 07:05:43;;;;;;;12.55;7.57;;;;;;;22.19;90.77;96424.34;4973075;28;20223;-70
2021/08/22 07:08:10;;;;;;;12.02;7.55;;;;;;;22.55;88.89;96416.63;4974766;28;20396;-70
2021/08/22 07:10:36;;;;;;;13.38;7.68;;;;;;;22.43;90.15;96418.59;4974958;28;20691;-70
2021/08/22 07:13:04;;;;;;;13.30;7.32;;;;;;;22.83;88.06;96411.09;4975162;28;20695;-70
2021/08/22 07:15:31;;;;;;;11.93;7.88;;;;;;;23.08;87.24;96412.28;4974655;28;20219;-70
2021/08/22 07:17:59;;;;;;;15.10;7.57;;;;;;;23.16;87.26;96405.66;4976093;28;20195;-70
2021/08/22 07:20:25;;;;;;;9.93;7.03;;;;;;;23.18;86.06;96406.22;4972827;28;20199;-70
2021/08/22 07:22:51;;;;;;;14.77;7.55;;;;;;;23.19;86.30;96414.03;4975210;28;20210;-70
2021/08/22 07:25:20;;;;;;;12.10;6.78;;;;;;;22.92;87.58;96415.78;4974168;28;20707;-70
2021/08/22 07:27:47;;;;;;;11.40;5.78;;;;;;;22.70;85.76;96412.28;4974718;28;20276;-70
2021/08/22 07:30:14;;;;;;;12.60;6.20;;;;;;;22.95;86.50;96422.56;4974876;28;20203;-70
2021/08/22 07:32:40;;;;;;;7.72;5.20;;;;;;;22.52;85.54;96416.31;4975751;28;20208;-70
2021/08/22 07:35:09;;;;;;;10.70;5.78;;;;;;;22.92;84.54;96421.16;4975866;28;20268;-70
2021/08/22 07:37:36;;;;;;;9.57;5.80;;;;;;;22.34;86.49;96422.75;4974804;28;20206;-70
2021/08/22 07:40:03;;;;;;;10.50;5.53;;;;;;;22.68;85.20;96416.25;4973667;28;20214;-69
2021/08/22 07:42:30;;;;;;;11.18;5.93;;;;;;;22.55;85.64;96413.13;4974850;28;20219;-70
2021/08/22 07:44:57;;;;;;;10.68;6.00;;;;;;;22.71;85.22;96424.66;4974476;28;20226;-70
2021/08/22 07:47:23;;;;;;;10.18;6.38;;;;;;;22.77;84.41;96417.47;4974674;28;20711;-70
2021/08/22 07:49:50;;;;;;;10.23;5.78;;;;;;;22.68;85.03;96421.63;4975037;28;20245;-70
2021/08/22 07:52:20;;;;;;;9.77;5.70;;;;;;;22.81;85.47;96418.59;4975163;28;20211;-70
2021/08/22 07:54:46;;;;;;;9.57;5.63;;;;;;;22.71;85.13;96418.47;4939685;28;1060376;-70
2021/08/22 07:57:12;;;;;;;14.10;5.82;;;;;;;22.40;86.17;96415.59;4974922;28;20208;-70
2021/08/22 07:59:39;;;;;;;8.80;5.60;;;;;;;22.83;84.90;96413.81;4974282;28;20207;-70
2021/08/22 08:02:05;;;;;;;9.98;5.55;;;;;;;22.63;86.49;96420.75;4975757;28;20204;-70
2021/08/22 08:04:32;;;;;;;13.40;5.70;;;;;;;22.88;84.67;96417.34;4975396;28;20223;-70
2021/08/22 08:06:58;;;;;;;8.30;5.40;;;;;;;22.46;85.63;96420.78;4973489;28;20223;-70
2021/08/22 08:09:26;;;;;;;11.25;5.70;;;;;;;22.70;85.99;96423.03;4976064;28;21012;-70
2021/08/22 08:11:53;;;;;;;9.60;5.93;;;;;;;22.53;86.49;96429.50;4976427;28;20203;-70
2021/08/22 08:14:20;;;;;;;8.73;5.57;;;;;;;22.65;86.19;96426.72;4974561;28;20223;-70
2021/08/22 08:16:46;;;;;;;9.15;5.65;;;;;;;22.74;85.23;96434.09;4975635;28;20334;-70
2021/08/22 08:19:13;;;;;;;10.88;5.55;;;;;;;23.03;83.04;96422.97;4974483;28;20203;-70
2021/08/22 08:21:39;;;;;;;12.02;5.47;;;;;;;23.34;83.78;96423.09;4976239;28;20742;-70
2021/08/22 08:24:06;;;;;;;9.43;5.50;;;;;;;23.52;82.24;96424.63;4974907;28;20299;-70
2021/08/22 08:26:33;;;;;;;10.15;4.97;;;;;;;23.41;80.67;96423.72;4975063;28;21192;-70
2021/08/22 08:29:00;;;;;;;9.07;4.70;;;;;;;23.19;79.45;96422.09;4976568;28;20212;-70
2021/08/22 08:31:26;;;;;;;6.80;4.55;;;;;;;23.24;79.55;96427.53;4976531;28;20234;-70
2021/08/22 08:33:53;;;;;;;7.25;4.20;;;;;;;22.72;79.74;96428.97;4975565;28;20223;-71
2021/08/22 08:36:19;;;;;;;7.20;4.35;;;;;;;22.99;79.42;96439.88;4975699;28;20203;-71
2021/08/22 08:38:46;;;;;;;9.30;4.82;;;;;;;22.84;79.37;96435.03;4975557;28;20199;-71
2021/08/22 08:41:12;;;;;;;7.90;4.32;;;;;;;22.75;79.21;96444.59;4972831;28;20284;-70
2021/08/22 08:43:40;;;;;;;7.35;4.60;;;;;;;23.11;78.87;96438.66;4976547;28;20831;-71
2021/08/22 08:46:09;;;;;;;10.20;5.00;;;;;;;23.02;79.59;96444.72;4975735;28;20203;-69
2021/08/22 08:48:37;;;;;;;8.95;4.75;;;;;;;23.16;79.21;96440.63;4975212;28;20230;-69
2021/08/22 08:51:22;;;;;;;9.35;4.90;;;;;;;23.35;78.55;96440.84;4973994;28;21174;-68
2021/08/22 08:53:49;;;;;;;7.53;4.18;;;;;;;23.02;79.21;96439.34;4958680;28;20713;-69
2021/08/22 08:56:15;;;;;;;6.82;4.18;;;;;;;23.06;79.55;96441.28;4973916;28;20225;-69
2021/08/22 08:58:43;;;;;;;7.88;4.65;;;;;;;23.59;79.47;96436.03;4974815;28;20346;-69
2021/08/22 09:01:10;;;;;;;6.85;4.32;;;;;;;23.68;76.34;96429.94;4974683;28;20207;-69
2021/08/22 09:03:36;;;;;;;7.50;4.63;;;;;;;23.94;76.51;96431.81;4972890;28;20211;-69
2021/08/22 09:06:45;;;;;;;11.10;4.47;;;;;;;24.12;75.36;96426.91;4974323;28;20227;-69
2021/08/22 09:09:48;;;;;;;8.25;4.97;;;;;;;24.00;75.61;96411.97;4944830;28;20203;-69
2021/08/22 09:12:46;;;;;;;7.90;4.35;;;;;;;24.01;74.61;96414.41;4975396;28;20210;-69
2021/08/22 09:16:04;;;;;;;9.40;3.65;;;;;;;23.81;74.71;96412.59;4974561;28;20320;-69
2021/08/22 09:19:08;;;;;;;7.60;4.63;;;;;;;23.97;75.82;96415.19;4975243;28;20679;-68
2021/08/22 09:22:12;;;;;;;10.32;4.68;;;;;;;24.21;75.04;96413.75;4975094;28;20207;-68
2021/08/22 09:25:18;;;;;;;8.43;4.10;;;;;;;24.03;73.66;96420.38;4975281;28;20238;-69
2021/08/22 09:28:22;;;;;;;5.68;3.95;;;;;;;23.99;73.98;96415.72;4975166;28;20227;-69
2021/08/22 09:31:23;;;;;;;7.55;4.47;;;;;;;24.21;73.50;96427.22;4974663;28;20697;-71
2021/08/22 09:34:23;;;;;;;7.95;4.60;;;;;;;24.13;73.19;96431.22;4975337;28;20255;-71
2021/08/22 09:37:34;;;;;;;7.85;4.15;;;;;;;23.75;74.15;96430.59;4940581;28;20207;-70
2021/08/22 09:40:38;;;;;;;6.32;4.07;;;;;;;23.99;73.33;96430.03;4913667;28;20201;-70
2021/08/22 09:43:46;;;;;;;7.50;4.60;;;;;;;23.96;73.45;96433.19;4974320;28;21071;-69
2021/08/22 09:46:55;;;;;;;9.40;5.15;;;;;;;23.85;74.85;96438.75;4973501;28;20288;-69
2021/08/22 09:50:00;;;;;;;7.60;4.18;;;;;;;24.09;73.32;96438.16;4979165;28;20225;-69
2021/08/22 09:53:08;;;;;;;6.78;4.22;;;;;;;24.07;73.66;96439.50;4973493;28;20202;-69
2021/08/22 09:56:12;;;;;;;6.20;4.35;;;;;;;24.21;74.07;96436.13;4973545;28;20238;-69
2021/08/22 09:59:29;;;;;;;9.88;5.20;;;;;;;24.20;73.91;96434.50;4974780;28;20214;-69
2021/08/22 10:02:25;;;;;;;9.77;4.63;;;;;;;24.43;73.02;96434.19;4912981;28;20217;-69
2021/08/22 10:05:32;;;;;;;9.20;5.93;;;;;;;24.59;72.14;96428.66;4911663;28;21207;-69
2021/08/22 10:08:07;;;;;;;9.60;5.15;;;;;;;24.78;73.80;96427.16;4968066;28;20250;-70
2021/08/22 10:10:36;;;;;;;7.90;4.97;;;;;;;24.62;72.34;96436.22;4973452;28;20222;-70
2021/08/22 10:13:03;;;;;;;7.45;4.63;;;;;;;24.53;71.74;96438.81;4973654;28;20207;-70
2021/08/22 10:15:30;;;;;;;6.90;3.55;;;;;;;23.96;73.46;96435.09;4973201;28;20219;-69
2021/08/22 10:17:58;;;;;;;9.10;5.07;;;;;;;23.97;74.75;96428.66;4974424;28;20202;-69
2021/08/22 10:20:40;;;;;;;6.72;3.90;;;;;;;24.05;73.74;96436.25;4974235;28;20578;-69
2021/08/22 10:23:26;;;;;;;8.50;4.70;;;;;;;24.17;73.83;96428.81;4973610;28;20231;-70
2021/08/22 10:25:55;;;;;;;7.90;5.10;;;;;;;24.19;74.27;96435.56;4973372;28;20219;-70
2021/08/22 10:28:59;;;;;;;7.47;5.30;;;;;;;24.48;72.74;96433.41;4974286;28;20287;-70
2021/08/22 10:32:01;;;;;;;7.93;5.10;;;;;;;24.55;72.13;96426.72;4973499;28;20211;-69
2021/08/22 10:34:29;;;;;;;6.72;4.15;;;;;;;24.22;72.76;96427.00;4973754;28;20250;-69
2021/08/22 10:36:57;;;;;;;6.20;4.40;;;;;;;24.27;73.46;96420.81;4974331;28;21199;-69
2021/08/22 10:39:30;;;;;;;7.35;4.57;;;;;;;24.80;72.32;96414.22;4974396;28;20219;-69
2021/08/22 10:41:57;;;;;;;7.13;4.72;;;;;;;24.64;72.28;96417.91;4974839;28;20258;-68
2021/08/22 10:44:40;;;;;;;8.73;4.28;;;;;;;24.59;71.72;96414.34;4973679;28;20223;-69
2021/08/22 10:47:08;;;;;;;9.38;4.80;;;;;;;25.04;72.11;96410.06;4973647;28;20219;-69
2021/08/22 10:50:00;;;;;;;7.75;4.80;;;;;;;25.19;69.89;96394.78;4976501;28;20218;-69
2021/08/22 10:52:28;;;;;;;6.97;4.50;;;;;;;24.89;70.59;96396.47;4973879;28;20210;-69
2021/08/22 10:55:34;;;;;;;9.80;4.55;;;;;;;25.32;70.02;96390.78;4977195;28;20269;-69
2021/08/22 10:58:00;;;;;;;8.52;4.97;;;;;;;25.29;70.79;96396.69;4972531;28;20230;-69
2021/08/22 11:00:29;;;;;;;6.45;4.55;;;;;;;25.27;67.71;96393.47;4977628;28;20231;-69
2021/08/22 11:02:56;;;;;;;8.27;4.60;;;;;;;25.14;67.87;96387.72;4973930;28;20311;-69
2021/08/22 11:05:25;;;;;;;9.00;4.78;;;;;;;25.24;68.49;96383.19;4974711;28;20231;-68
2021/08/22 11:07:54;;;;;;;8.48;4.40;;;;;;;24.98;68.97;96383.31;4975087;28;20659;-68
2021/08/22 11:10:22;;;;;;;7.95;4.80;;;;;;;25.26;69.53;96372.94;4978798;28;20261;-68
2021/08/22 11:12:51;;;;;;;9.63;4.68;;;;;;;25.40;69.89;96374.88;4977168;28;20207;-69
2021/08/22 11:15:28;;;;;;;8.00;4.63;;;;;;;25.61;68.55;96373.03;4973003;28;20219;-68
2021/08/22 11:17:55;;;;;;;6.68;4.47;;;;;;;25.56;69.98;96371.16;4978484;28;20210;-68
2021/08/22 11:20:27;;;;;;;6.78;4.43;;;;;;;25.46;70.16;96370.31;4975802;28;20203;-69
2021/08/22 11:23:03;;;;;;;7.65;4.53;;;;;;;25.16;70.31;96364.81;4975568;28;20207;-69
2021/08/22 11:25:30;;;;;;;6.78;4.32;;;;;;;24.68;70.26;96367.81;4976934;28;20222;-69
2021/08/22 11:28:08;;;;;;;6.63;4.28;;;;;;;24.71;70.82;96372.66;4976603;28;20234;-69
2021/08/22 11:30:35;;;;;;;9.55;4.38;;;;;;;24.50;71.39;96369.31;4977080;28;20203;-68
2021/08/22 11:33:02;;;;;;;6.25;4.50;;;;;;;24.60;72.45;96365.59;4976424;28;20246;-68
2021/08/22 11:35:30;;;;;;;7.13;4.63;;;;;;;24.94;71.90;96355.25;4975047;28;20231;-68
2021/08/22 11:38:00;;;;;;;8.88;4.85;;;;;;;24.47;74.05;96361.75;4976671;28;20211;-68
2021/08/22 11:40:27;;;;;;;7.18;4.38;;;;;;;24.21;75.33;96367.97;4976671;28;20264;-68